Time;durP1;ratioP1;P1;durP2;ratioP2;P2;SDS_P1;SDS_P2;PMS_P1;PMS_P2;Temp;Humidity;BMP_temperature;BMP_pressure;BME280_temperature;BME280_humidity;BME280_pressure;Samples;Min_cycle;Max_cycle;Signal;HPM_P1;HPM_P2
2024/01/23 00:00:08;;;;;;;5.67;1.70;;;;;4.20;94540.00;;;;7405435;19;20168;-94
2024/01/23 00:02:37;;;;;;;9.57;2.03;;;;;4.10;94544.00;;;;7403707;19;20493;-92
2024/01/23 00:05:11;;;;;;;4.97;1.47;;;;;4.10;94542.00;;;;7405573;19;20132;-94
2024/01/23 00:07:40;;;;;;;7.83;1.97;;;;;4.30;94526.00;;;;7403357;19;20125;-92
2024/01/23 00:10:15;;;;;;;9.70;2.00;;;;;4.50;94535.00;;;;7404221;19;20165;-92
2024/01/23 00:12:51;;;;;;;8.97;1.70;;;;;4.40;94520.00;;;;7402810;19;20167;-94
2024/01/23 00:15:21;;;;;;;8.20;1.87;;;;;4.40;94538.00;;;;7404520;19;20133;-95
2024/01/23 00:17:56;;;;;;;7.50;1.60;;;;;4.40;94520.00;;;;7402662;19;20164;-93
2024/01/23 00:20:24;;;;;;;11.87;2.97;;;;;4.30;94513.00;;;;7404708;19;20608;-91
2024/01/23 00:22:58;;;;;;;10.50;2.13;;;;;4.50;94513.00;;;;7406442;19;20140;-91
2024/01/23 00:25:40;;;;;;;7.40;1.70;;;;;4.30;94500.00;;;;7405152;19;20521;-91
2024/01/23 00:28:09;;;;;;;10.27;1.83;;;;;4.30;94503.00;;;;7405463;19;20569;-91
2024/01/23 00:30:50;;;;;;;13.33;2.43;;;;;4.20;94530.00;;;;7411150;19;20128;-96
2024/01/23 00:33:18;;;;;;;6.90;1.80;;;;;4.20;94522.00;;;;7416403;19;20144;-96
2024/01/23 00:35:54;;;;;;;6.50;1.90;;;;;4.00;94517.00;;;;7412219;19;20160;-96
2024/01/23 00:38:29;;;;;;;10.50;1.60;;;;;3.90;94517.00;;;;7413224;19;20148;-96
2024/01/23 00:41:05;;;;;;;7.40;2.00;;;;;4.00;94517.00;;;;7413300;19;20600;-96
2024/01/23 00:44:12;;;;;;;7.77;1.90;;;;;3.60;94536.00;;;;7423266;19;20229;-96
2024/01/23 00:47:02;;;;;;;13.33;2.00;;;;;3.60;94542.00;;;;7412632;19;20152;-81
2024/01/23 00:49:36;;;;;;;13.07;2.27;;;;;3.70;94566.00;;;;7410215;19;20141;-83
2024/01/23 00:52:11;;;;;;;5.37;1.17;;;;;3.50;94586.00;;;;7408882;19;20147;-82
2024/01/23 00:54:41;;;;;;;8.33;1.60;;;;;3.40;94559.00;;;;7417413;19;20149;-81
2024/01/23 00:57:10;;;;;;;5.57;1.40;;;;;3.00;94569.00;;;;7418137;19;20149;-82
2024/01/23 00:59:56;;;;;;;5.23;1.30;;;;;3.20;94549.00;;;;7422686;19;20147;-83
2024/01/23 01:02:28;;;;;;;5.07;1.27;;;;;3.20;94564.00;;;;7431933;19;20168;-80
2024/01/23 01:05:03;;;;;;;5.33;1.10;;;;;3.20;94542.00;;;;7417129;19;20141;-82
2024/01/23 01:07:37;;;;;;;4.87;1.20;;;;;3.10;94557.00;;;;7416397;19;20213;-80
2024/01/23 01:10:11;;;;;;;6.10;1.70;;;;;3.30;94564.00;;;;7415086;19;20146;-83
2024/01/23 01:12:46;;;;;;;9.30;1.60;;;;;3.40;94574.00;;;;7413605;19;20155;-82
2024/01/23 01:15:20;;;;;;;7.93;1.87;;;;;3.40;94560.00;;;;7412381;19;20469;-82
2024/01/23 01:17:54;;;;;;;8.33;1.90;;;;;3.40;94560.00;;;;7414291;19;20473;-82
2024/01/23 01:20:25;;;;;;;8.77;2.53;;;;;3.30;94572.00;;;;7415651;19;20145;-81
2024/01/23 01:23:07;;;;;;;13.20;2.50;;;;;3.40;94579.00;;;;7415447;19;20201;-81
2024/01/23 01:25:49;;;;;;;13.43;2.17;;;;;3.60;94589.00;;;;7420442;19;20140;-82
2024/01/23 01:28:23;;;;;;;9.47;1.60;;;;;3.30;94575.00;;;;7418398;19;20226;-81
2024/01/23 01:30:57;;;;;;;8.20;2.07;;;;;3.50;94578.00;;;;7411075;19;20129;-83
2024/01/23 01:33:25;;;;;;;8.40;2.10;;;;;3.30;94585.00;;;;7412243;19;20143;-82
2024/01/23 01:36:01;;;;;;;10.37;2.60;;;;;3.50;94590.00;;;;7413064;19;20215;-82
2024/01/23 01:38:29;;;;;;;17.47;2.77;;;;;3.50;94586.00;;;;7415678;19;20161;-81
2024/01/23 01:41:17;;;;;;;16.00;2.57;;;;;3.50;94602.00;;;;7413630;19;20149;-82
2024/01/23 01:43:51;;;;;;;10.00;2.33;;;;;3.40;94608.00;;;;7416729;19;20167;-82
2024/01/23 01:46:26;;;;;;;14.53;2.80;;;;;3.40;94600.00;;;;7410800;19;20180;-82
2024/01/23 01:49:07;;;;;;;10.70;2.23;;;;;3.40;94611.00;;;;7401155;19;20525;-80
2024/01/23 01:51:41;;;;;;;14.07;2.23;;;;;3.30;94604.00;;;;7405443;19;20133;-80
2024/01/23 01:54:11;;;;;;;15.13;2.70;;;;;3.40;94598.00;;;;7403680;19;20137;-81
2024/01/23 01:56:40;;;;;;;11.00;2.73;;;;;3.50;94589.00;;;;7403502;19;20156;-82
2024/01/23 01:59:14;;;;;;;12.80;2.43;;;;;3.60;94604.00;;;;7405434;19;20601;-81
2024/01/23 02:01:49;;;;;;;13.43;2.83;;;;;3.50;94610.00;;;;7404011;19;20144;-82
2024/01/23 02:04:23;;;;;;;15.23;2.77;;;;;3.60;94627.00;;;;7407110;19;20136;-83
2024/01/23 02:06:52;;;;;;;13.13;3.07;;;;;3.40;94630.00;;;;7402217;19;20603;-83
2024/01/23 02:09:26;;;;;;;13.10;2.90;;;;;3.40;94631.00;;;;7405294;19;20157;-82
2024/01/23 02:11:57;;;;;;;15.03;2.70;;;;;3.40;94641.00;;;;7403748;19;20141;-82
2024/01/23 02:14:33;;;;;;;14.57;3.30;;;;;3.40;94637.00;;;;7400875;19;20157;-82
2024/01/23 02:17:00;;;;;;;14.63;2.67;;;;;3.50;94633.00;;;;7404266;19;20157;-84
2024/01/23 02:19:35;;;;;;;16.30;2.40;;;;;3.30;94634.00;;;;7403762;19;20140;-84
2024/01/23 02:22:09;;;;;;;17.97;3.07;;;;;3.30;94643.00;;;;7402393;19;20204;-83
2024/01/23 02:24:43;;;;;;;11.63;2.40;;;;;3.40;94628.00;;;;7402982;19;20493;-83
2024/01/23 02:27:17;;;;;;;17.07;2.83;;;;;3.40;94648.00;;;;7403701;19;20188;-83
2024/01/23 02:29:45;;;;;;;17.20;3.40;;;;;3.20;94648.00;;;;7403109;19;20153;-81
2024/01/23 02:32:20;;;;;;;19.77;2.87;;;;;3.40;94654.00;;;;7401147;19;20161;-83
2024/01/23 02:34:47;;;;;;;10.50;2.57;;;;;3.50;94658.00;;;;7401571;19;20130;-84
2024/01/23 02:37:22;;;;;;;14.00;2.57;;;;;3.50;94656.00;;;;7403258;19;20144;-83
2024/01/23 02:39:49;;;;;;;12.17;3.13;;;;;3.50;94651.00;;;;7403448;19;20220;-83
2024/01/23 02:42:24;;;;;;;11.63;2.53;;;;;3.50;94678.00;;;;7403606;19;20136;-81
2024/01/23 02:44:52;;;;;;;13.73;2.63;;;;;3.50;94647.00;;;;7404025;19;20209;-85
2024/01/23 02:47:26;;;;;;;10.00;2.90;;;;;3.60;94662.00;;;;7401811;19;20166;-82
2024/01/23 02:50:07;;;;;;;14.07;3.17;;;;;3.40;94654.00;;;;7403097;19;20173;-82
2024/01/23 02:52:42;;;;;;;22.30;2.87;;;;;3.50;94648.00;;;;7402315;19;20148;-83
2024/01/23 02:55:16;;;;;;;15.13;3.00;;;;;3.40;94666.00;;;;7406312;19;20136;-80
2024/01/23 02:57:51;;;;;;;15.90;2.87;;;;;3.60;94666.00;;;;7407960;19;20531;-83
2024/01/23 03:00:19;;;;;;;15.10;2.83;;;;;3.50;94656.00;;;;7412185;19;20161;-85
2024/01/23 03:02:54;;;;;;;18.00;3.17;;;;;3.70;94666.00;;;;7412668;19;20125;-86
2024/01/23 03:05:22;;;;;;;13.57;2.77;;;;;3.60;94656.00;;;;7409545;19;20144;-85
2024/01/23 03:07:57;;;;;;;18.80;3.17;;;;;3.60;94637.00;;;;7407951;19;20161;-84
2024/01/23 03:10:25;;;;;;;20.70;3.17;;;;;3.80;94642.00;;;;7413166;19;20129;-85
2024/01/23 03:12:59;;;;;;;14.23;2.70;;;;;3.70;94657.00;;;;7414256;19;20171;-86
2024/01/23 03:15:33;;;;;;;11.47;2.40;;;;;3.80;94667.00;;;;7406448;19;20140;-83
2024/01/23 03:18:01;;;;;;;17.40;3.03;;;;;3.70;94670.00;;;;7407390;19;20129;-85
2024/01/23 03:20:38;;;;;;;12.23;2.40;;;;;3.90;94671.00;;;;7407893;19;20132;-82
2024/01/23 03:23:05;;;;;;;18.30;3.13;;;;;3.90;94678.00;;;;7405355;19;20154;-84
2024/01/23 03:25:40;;;;;;;11.50;2.50;;;;;3.80;94667.00;;;;7409793;19;20161;-83
2024/01/23 03:28:14;;;;;;;20.03;3.40;;;;;3.90;94669.00;;;;7411346;19;20174;-84
2024/01/23 03:30:49;;;;;;;10.60;2.60;;;;;3.90;94682.00;;;;7407930;19;20144;-83
2024/01/23 03:33:23;;;;;;;16.20;2.63;;;;;3.90;94669.00;;;;7404526;19;20125;-84
2024/01/23 03:35:51;;;;;;;15.47;3.07;;;;;3.90;94680.00;;;;7407429;19;20145;-84
2024/01/23 03:38:27;;;;;;;11.57;2.60;;;;;3.90;94681.00;;;;7410024;19;20148;-83
2024/01/23 03:41:08;;;;;;;12.47;2.70;;;;;3.90;94700.00;;;;7412764;19;20189;-85
2024/01/23 03:43:46;;;;;;;15.47;3.20;;;;;3.80;94706.00;;;;7410857;19;20523;-83
2024/01/23 03:46:20;;;;;;;15.87;3.07;;;;;3.80;94707.00;;;;7408224;19;20125;-83
2024/01/23 03:49:01;;;;;;;14.10;3.03;;;;;3.90;94704.00;;;;7406239;19;20157;-83
2024/01/23 03:51:35;;;;;;;9.13;2.57;;;;;3.90;94703.00;;;;7404656;19;20171;-85
2024/01/23 03:54:09;;;;;;;13.20;2.33;;;;;4.10;94707.00;;;;7406787;19;20187;-84
2024/01/23 03:56:39;;;;;;;12.07;3.23;;;;;3.90;94684.00;;;;7407799;19;20639;-83
2024/01/23 03:59:12;;;;;;;16.03;3.13;;;;;3.70;94711.00;;;;7404687;19;20133;-84
2024/01/23 04:01:40;;;;;;;15.30;2.33;;;;;3.50;94724.00;;;;7408009;19;20140;-84
2024/01/23 04:04:08;;;;;;;17.63;3.00;;;;;3.50;94724.00;;;;7409329;19;20162;-84
2024/01/23 04:06:43;;;;;;;16.90;2.80;;;;;3.30;94740.00;;;;7411571;19;20801;-84
2024/01/23 04:09:17;;;;;;;15.00;2.47;;;;;3.30;94739.00;;;;7403749;19;20148;-80
2024/01/23 04:11:51;;;;;;;14.20;2.73;;;;;3.10;94733.00;;;;7399585;19;20147;-79
2024/01/23 04:14:20;;;;;;;14.63;2.70;;;;;3.20;94717.00;;;;7397237;19;20496;-78
2024/01/23 04:16:54;;;;;;;18.00;3.17;;;;;2.90;94728.00;;;;7399640;19;20156;-79
2024/01/23 04:19:22;;;;;;;15.53;3.10;;;;;2.90;94737.00;;;;7400331;19;20148;-79
2024/01/23 04:21:58;;;;;;;11.30;2.53;;;;;2.80;94727.00;;;;7401122;19;20628;-81
2024/01/23 04:24:36;;;;;;;13.63;2.57;;;;;2.80;94743.00;;;;7396987;19;20609;-80
2024/01/23 04:27:10;;;;;;;16.63;2.80;;;;;2.70;94752.00;;;;7399753;19;20136;-80
2024/01/23 04:29:38;;;;;;;9.33;2.00;;;;;2.70;94754.00;;;;7404926;19;20551;-80
2024/01/23 04:32:13;;;;;;;8.67;2.33;;;;;2.70;94758.00;;;;7414045;19;20612;-80
2024/01/23 04:34:48;;;;;;;12.53;2.77;;;;;2.60;94775.00;;;;7414873;19;20589;-79
2024/01/23 04:37:22;;;;;;;11.00;2.00;;;;;2.70;94778.00;;;;7412346;19;20479;-79
2024/01/23 04:39:57;;;;;;;10.40;1.60;;;;;2.70;94775.00;;;;7412234;19;20596;-79
2024/01/23 04:42:34;;;;;;;7.10;1.90;;;;;2.80;94764.00;;;;7411264;19;20656;-80
2024/01/23 04:45:03;;;;;;;7.80;1.60;;;;;2.60;94793.00;;;;7413600;19;20141;-80
2024/01/23 04:47:37;;;;;;;7.10;2.07;;;;;2.50;94785.00;;;;7413342;19;20609;-79
2024/01/23 04:50:18;;;;;;;9.23;1.80;;;;;2.60;94805.00;;;;7411810;19;20163;-82
2024/01/23 04:52:46;;;;;;;11.43;2.20;;;;;2.70;94803.00;;;;7412917;19;20627;-81
2024/01/23 04:55:20;;;;;;;12.97;2.20;;;;;2.70;94799.00;;;;7411218;19;20152;-80
2024/01/23 04:57:51;;;;;;;11.17;2.20;;;;;2.60;94797.00;;;;7416522;19;20141;-80
2024/01/23 05:00:25;;;;;;;7.93;2.00;;;;;2.60;94799.00;;;;7413199;19;20224;-80
2024/01/23 05:02:53;;;;;;;11.60;1.60;;;;;2.50;94804.00;;;;7413872;19;20140;-81
2024/01/23 05:05:27;;;;;;;12.07;1.57;;;;;2.30;94810.00;;;;7417098;19;20173;-80
2024/01/23 05:07:55;;;;;;;8.10;2.00;;;;;2.30;94828.00;;;;7416460;19;20147;-80
2024/01/23 05:10:23;;;;;;;12.00;1.37;;;;;2.10;94822.00;;;;7416986;19;20212;-79
2024/01/23 05:12:59;;;;;;;7.07;1.53;;;;;1.90;94829.00;;;;7415189;19;20486;-79
2024/01/23 05:15:34;;;;;;;6.23;1.07;;;;;2.00;94829.00;;;;7412907;19;20464;-79
2024/01/23 05:18:09;;;;;;;4.30;0.90;;;;;2.00;94831.00;;;;7418407;19;20155;-79
2024/01/23 05:20:47;;;;;;;4.40;1.00;;;;;2.00;94850.00;;;;7425559;19;20137;-80
2024/01/23 05:23:24;;;;;;;6.27;1.17;;;;;1.70;94853.00;;;;7426940;19;20144;-78
2024/01/23 05:25:52;;;;;;;2.53;0.90;;;;;1.70;94855.00;;;;7422034;19;20136;-81
2024/01/23 05:28:31;;;;;;;3.90;1.00;;;;;1.90;94870.00;;;;7425215;19;20161;-80
2024/01/23 05:31:08;;;;;;;2.93;0.83;;;;;1.70;94869.00;;;;7423423;19;20155;-79
2024/01/23 05:33:37;;;;;;;2.50;0.70;;;;;1.70;94886.00;;;;7427265;19;20121;-80
2024/01/23 05:36:07;;;;;;;3.67;0.93;;;;;1.80;94876.00;;;;7426002;19;20659;-80
2024/01/23 05:38:41;;;;;;;2.63;1.00;;;;;1.80;94869.00;;;;7415371;19;20700;-80
2024/01/23 05:41:09;;;;;;;6.53;1.23;;;;;1.80;94869.00;;;;7402041;19;20149;-80
2024/01/23 05:43:44;;;;;;;6.20;1.23;;;;;1.70;94881.00;;;;7399177;19;20648;-81
2024/01/23 05:46:28;;;;;;;4.50;0.80;;;;;1.60;94896.00;;;;7405047;19;20148;-81
2024/01/23 05:49:12;;;;;;;4.03;0.73;;;;;1.80;94888.00;;;;7418934;19;20179;-80
2024/01/23 05:51:40;;;;;;;4.53;0.73;;;;;1.60;94889.00;;;;7411951;19;20166;-80
2024/01/23 05:54:15;;;;;;;6.67;1.10;;;;;1.80;94894.00;;;;7409607;19;20140;-80
2024/01/23 05:56:50;;;;;;;3.53;1.03;;;;;2.00;94896.00;;;;7412889;19;20157;-80
2024/01/23 05:59:20;;;;;;;1.43;1.00;;;;;2.00;94906.00;;;;7412923;19;20169;-83
2024/01/23 06:01:52;;;;;;;4.33;0.83;;;;;2.00;94917.00;;;;7412807;19;20613;-79
2024/01/23 06:04:29;;;;;;;2.47;1.00;;;;;2.10;94901.00;;;;7407296;19;20148;-81
2024/01/23 06:07:06;;;;;;;2.47;0.97;;;;;2.00;94914.00;;;;7405437;19;20151;-81
2024/01/23 06:09:40;;;;;;;4.97;0.87;;;;;2.10;94923.00;;;;7403232;19;20152;-80
2024/01/23 06:12:15;;;;;;;9.00;0.83;;;;;2.10;94921.00;;;;7404242;19;20132;-80
2024/01/23 06:14:50;;;;;;;4.83;0.97;;;;;2.20;94919.00;;;;7408899;19;20149;-80
2024/01/23 06:17:26;;;;;;;7.00;1.40;;;;;2.40;94928.00;;;;7412129;19;20136;-80
2024/01/23 06:20:07;;;;;;;4.33;1.20;;;;;2.60;94941.00;;;;7402208;19;20144;-81
2024/01/23 06:22:41;;;;;;;3.97;1.17;;;;;2.40;94938.00;;;;7409585;19;20152;-79
2024/01/23 06:25:16;;;;;;;8.47;1.53;;;;;2.40;94941.00;;;;7405948;19;20144;-81
2024/01/23 06:27:51;;;;;;;8.73;1.77;;;;;2.40;94953.00;;;;7403661;19;20495;-81
2024/01/23 06:30:29;;;;;;;3.77;1.43;;;;;2.30;94933.00;;;;7406148;19;20156;-80
2024/01/23 06:32:58;;;;;;;17.73;1.90;;;;;2.50;94937.00;;;;7403567;19;20129;-80
2024/01/23 06:35:33;;;;;;;11.50;1.97;;;;;2.40;94959.00;;;;7406905;19;20144;-80
2024/01/23 06:38:01;;;;;;;10.13;2.10;;;;;2.60;94941.00;;;;7411196;19;20149;-80
2024/01/23 06:40:36;;;;;;;10.67;2.03;;;;;2.60;94949.00;;;;7419101;19;20136;-80
2024/01/23 06:43:11;;;;;;;7.97;2.27;;;;;2.30;94954.00;;;;7410555;19;20228;-80
2024/01/23 06:45:48;;;;;;;10.80;2.50;;;;;2.60;94968.00;;;;7399533;19;20152;-81
2024/01/23 06:48:22;;;;;;;9.00;2.13;;;;;2.60;94972.00;;;;7406918;19;20220;-80
2024/01/23 06:50:57;;;;;;;13.83;2.60;;;;;2.40;94972.00;;;;7402965;19;20148;-80
2024/01/23 06:53:25;;;;;;;8.13;2.10;;;;;2.30;94983.00;;;;7406716;19;20145;-79
2024/01/23 06:56:03;;;;;;;8.67;2.17;;;;;2.50;94988.00;;;;7407999;19;20144;-80
2024/01/23 06:58:39;;;;;;;16.87;3.30;;;;;2.40;95000.00;;;;7402587;19;20208;-81
2024/01/23 07:01:13;;;;;;;15.57;2.57;;;;;2.40;94994.00;;;;7406200;19;20145;-80
2024/01/23 07:03:48;;;;;;;13.80;2.40;;;;;2.30;94992.00;;;;7403344;19;20474;-81
2024/01/23 07:06:17;;;;;;;16.40;3.07;;;;;2.30;95009.00;;;;7408489;19;20141;-80
2024/01/23 07:08:53;;;;;;;8.83;2.30;;;;;2.20;95011.00;;;;7404205;19;20156;-80
2024/01/23 07:11:21;;;;;;;11.53;2.50;;;;;2.20;95016.00;;;;7401076;19;20179;-80
2024/01/23 07:13:54;;;;;;;12.17;2.97;;;;;2.30;95038.00;;;;7400282;19;20140;-79
2024/01/23 07:16:22;;;;;;;17.57;2.57;;;;;2.40;95034.00;;;;7400512;19;20507;-80
2024/01/23 07:18:57;;;;;;;11.37;2.70;;;;;2.40;95033.00;;;;7399873;19;20144;-79
2024/01/23 07:21:25;;;;;;;17.60;2.70;;;;;2.40;95055.00;;;;7396101;19;20608;-80
2024/01/23 07:24:00;;;;;;;15.33;2.77;;;;;2.60;95073.00;;;;7404884;19;20504;-81
2024/01/23 07:26:35;;;;;;;14.00;2.80;;;;;2.50;95067.00;;;;7401552;19;20132;-81
2024/01/23 07:29:09;;;;;;;10.53;2.70;;;;;2.50;95080.00;;;;7410916;19;20161;-80
2024/01/23 07:31:44;;;;;;;11.37;2.53;;;;;2.20;95070.00;;;;7405201;19;20131;-82
2024/01/23 07:34:19;;;;;;;11.77;2.57;;;;;2.30;95083.00;;;;7412682;19;20128;-81
2024/01/23 07:36:47;;;;;;;14.07;1.90;;;;;2.00;95093.00;;;;7413039;19;20224;-80
2024/01/23 07:39:24;;;;;;;10.13;2.20;;;;;2.20;95075.00;;;;7404025;19;20195;-80
2024/01/23 07:42:02;;;;;;;11.27;1.70;;;;;1.90;95093.00;;;;7408688;19;20144;-79
2024/01/23 07:44:39;;;;;;;4.77;1.13;;;;;1.70;95076.00;;;;7410789;19;20640;-81
2024/01/23 07:47:07;;;;;;;7.30;1.80;;;;;1.70;95080.00;;;;7413845;19;20145;-81
2024/01/23 07:49:48;;;;;;;4.40;1.27;;;;;1.70;95080.00;;;;7401670;19;20644;-83
2024/01/23 07:52:25;;;;;;;5.53;1.47;;;;;1.70;95087.00;;;;7401842;19;20475;-81
2024/01/23 07:55:03;;;;;;;5.93;2.00;;;;;1.90;95077.00;;;;7397578;19;20147;-81
2024/01/23 07:57:32;;;;;;;10.93;1.90;;;;;2.50;95080.00;;;;7397780;19;20615;-81
2024/01/23 08:00:09;;;;;;;16.17;2.60;;;;;2.90;95084.00;;;;7400749;19;20125;-80
2024/01/23 08:02:48;;;;;;;14.13;2.70;;;;;3.10;95089.00;;;;7409901;19;20173;-81
2024/01/23 08:05:26;;;;;;;13.93;2.50;;;;;2.80;95100.00;;;;7410966;19;20193;-81
2024/01/23 08:07:55;;;;;;;12.47;2.70;;;;;2.90;95101.00;;;;7417046;19;20129;-82
2024/01/23 08:10:31;;;;;;;9.50;2.40;;;;;3.00;95111.00;;;;7416902;19;20176;-82
2024/01/23 08:13:00;;;;;;;11.60;2.40;;;;;2.70;95108.00;;;;7416155;19;20145;-81
2024/01/23 08:15:29;;;;;;;6.67;1.80;;;;;2.70;95109.00;;;;7409164;19;20129;-80
2024/01/23 08:18:04;;;;;;;9.27;1.80;;;;;2.60;95117.00;;;;7411209;19;20148;-83
2024/01/23 08:20:35;;;;;;;5.73;1.57;;;;;2.60;95113.00;;;;7408252;19;20143;-81
2024/01/23 08:23:12;;;;;;;7.87;1.53;;;;;2.50;95121.00;;;;7403270;19;20159;-81
2024/01/23 08:25:42;;;;;;;4.70;1.20;;;;;2.30;95111.00;;;;7401663;19;20151;-80
2024/01/23 08:28:17;;;;;;;6.23;1.27;;;;;2.50;95113.00;;;;7397793;19;20215;-80
2024/01/23 08:30:45;;;;;;;5.63;1.50;;;;;2.50;95113.00;;;;7399071;19;20152;-82
2024/01/23 08:33:22;;;;;;;5.97;1.07;;;;;2.50;95098.00;;;;7395249;19;20165;-82
2024/01/23 08:35:50;;;;;;;6.13;1.60;;;;;3.40;95100.00;;;;7398750;19;20141;-80
2024/01/23 08:38:24;;;;;;;4.93;1.20;;;;;3.50;95088.00;;;;7400175;19;20212;-81
2024/01/23 08:40:52;;;;;;;7.47;1.63;;;;;3.20;95092.00;;;;7397251;19;20156;-82
2024/01/23 08:43:34;;;;;;;6.73;1.50;;;;;3.40;95103.00;;;;7397089;19;20190;-82
2024/01/23 08:46:09;;;;;;;5.57;1.20;;;;;3.00;95113.00;;;;7395523;19;20140;-81
2024/01/23 08:48:50;;;;;;;6.43;1.73;;;;;2.70;95110.00;;;;7395769;19;20191;-81
2024/01/23 08:51:28;;;;;;;7.90;1.60;;;;;2.80;95122.00;;;;7400141;19;20148;-80
2024/01/23 08:54:02;;;;;;;4.20;1.43;;;;;2.90;95129.00;;;;7396011;19;20159;-81
2024/01/23 08:56:31;;;;;;;6.53;1.40;;;;;2.70;95127.00;;;;7404833;19;20153;-80
2024/01/23 08:59:06;;;;;;;6.67;1.27;;;;;2.80;95144.00;;;;7397822;19;20144;-81
2024/01/23 09:01:33;;;;;;;7.33;1.13;;;;;3.10;95143.00;;;;7404404;19;20170;-82
2024/01/23 09:04:14;;;;;;;3.73;1.17;;;;;3.10;95142.00;;;;7398506;19;20152;-80
2024/01/23 09:06:50;;;;;;;3.00;0.80;;;;;3.20;95162.00;;;;7405376;19;20498;-81
2024/01/23 09:09:25;;;;;;;1.33;0.60;;;;;3.00;95172.00;;;;7398737;19;20152;-82
2024/01/23 09:11:53;;;;;;;3.20;0.90;;;;;3.00;95175.00;;;;7397770;19;20153;-81
2024/01/23 09:14:21;;;;;;;4.83;0.90;;;;;2.70;95178.00;;;;7401837;19;20125;-80
2024/01/23 09:16:55;;;;;;;3.93;0.80;;;;;2.40;95176.00;;;;7401804;19;20561;-80
2024/01/23 09:19:24;;;;;;;2.70;1.03;;;;;2.70;95191.00;;;;7404877;19;20165;-81
2024/01/23 09:21:59;;;;;;;6.97;1.10;;;;;3.10;95181.00;;;;7404476;19;20140;-81
2024/01/23 09:24:34;;;;;;;4.73;1.40;;;;;3.50;95190.00;;;;7402860;19;20807;-81
2024/01/23 09:27:03;;;;;;;6.13;1.83;;;;;3.50;95209.00;;;;7405882;19;20145;-81
2024/01/23 09:29:38;;;;;;;6.07;1.73;;;;;3.20;95208.00;;;;7402598;19;20494;-83
2024/01/23 09:32:13;;;;;;;9.27;1.83;;;;;3.50;95207.00;;;;7403844;19;20139;-82
2024/01/23 09:34:49;;;;;;;14.77;1.83;;;;;3.30;95223.00;;;;7403013;19;20593;-83
2024/01/23 09:37:17;;;;;;;12.27;2.63;;;;;3.40;95226.00;;;;7403737;19;20157;-81
2024/01/23 09:39:54;;;;;;;14.00;2.77;;;;;3.50;95233.00;;;;7412531;19;20128;-82
2024/01/23 09:42:31;;;;;;;13.13;2.90;;;;;3.40;95231.00;;;;7404251;19;20151;-83
2024/01/23 09:45:18;;;;;;;14.43;2.87;;;;;3.80;95245.00;;;;7401813;19;20145;-83
2024/01/23 09:48:00;;;;;;;12.80;2.90;;;;;4.30;95232.00;;;;7402482;19;20141;-83
2024/01/23 09:50:38;;;;;;;10.20;2.30;;;;;5.50;95220.00;;;;7398336;19;20156;-81
2024/01/23 09:53:06;;;;;;;14.50;2.60;;;;;6.20;95227.00;;;;7399980;19;20519;-83
2024/01/23 09:55:41;;;;;;;14.50;3.03;;;;;6.00;95223.00;;;;7397954;19;20512;-83
2024/01/23 09:58:15;;;;;;;11.67;2.00;;;;;6.90;95230.00;;;;7399795;19;20597;-80
2024/01/23 10:00:42;;;;;;;16.30;2.73;;;;;7.40;95235.00;;;;7394061;19;20164;-80
2024/01/23 10:03:17;;;;;;;14.20;2.63;;;;;5.90;95235.00;;;;7394299;19;20620;-79
2024/01/23 10:05:51;;;;;;;8.33;2.43;;;;;5.50;95234.00;;;;7393572;19;20151;-79
2024/01/23 10:08:22;;;;;;;13.23;2.30;;;;;5.10;95234.00;;;;7394248;19;20141;-81
2024/01/23 10:11:01;;;;;;;10.83;2.50;;;;;4.50;95226.00;;;;7398049;19;20568;-81
2024/01/23 10:13:37;;;;;;;18.43;2.83;;;;;4.60;95228.00;;;;7397660;19;20148;-81
2024/01/23 10:16:06;;;;;;;10.17;2.30;;;;;5.00;95221.00;;;;7397167;19;20657;-81
2024/01/23 10:18:40;;;;;;;11.27;2.70;;;;;5.40;95238.00;;;;7399258;19;20628;-84
2024/01/23 10:21:09;;;;;;;10.20;2.37;;;;;4.70;95235.00;;;;7395968;19;20169;-81
2024/01/23 10:23:43;;;;;;;11.67;2.57;;;;;4.30;95259.00;;;;7399419;19;20145;-86
2024/01/23 10:26:11;;;;;;;10.87;2.60;;;;;3.90;95246.00;;;;7397170;19;20141;-83
2024/01/23 10:28:46;;;;;;;15.33;2.53;;;;;5.10;95241.00;;;;7396261;19;20581;-83
2024/01/23 10:31:16;;;;;;;11.37;2.73;;;;;5.30;95239.00;;;;7397870;19;20150;-83
2024/01/23 10:33:52;;;;;;;13.83;2.53;;;;;4.80;95252.00;;;;7399044;19;20129;-84
2024/01/23 10:36:20;;;;;;;13.57;2.60;;;;;5.10;95230.00;;;;7397976;19;20140;-82
2024/01/23 10:38:54;;;;;;;16.20;2.63;;;;;5.10;95247.00;;;;7394623;19;20558;-82
2024/01/23 10:41:30;;;;;;;12.50;2.53;;;;;4.90;95247.00;;;;7394913;19;20495;-82
2024/01/23 10:44:05;;;;;;;10.10;2.63;;;;;4.40;95253.00;;;;7394038;19;20176;-83
2024/01/23 10:46:34;;;;;;;9.60;2.47;;;;;4.40;95245.00;;;;7394776;19;20145;-82
2024/01/23 10:49:02;;;;;;;12.03;2.53;;;;;5.70;95240.00;;;;7395527;19;20153;-83
2024/01/23 10:51:37;;;;;;;15.53;3.00;;;;;6.70;95221.00;;;;7397345;19;20184;-80
2024/01/23 10:54:28;;;;;;;15.17;3.50;;;;;7.30;95220.00;;;;7395657;19;20996;-81
2024/01/23 10:57:05;;;;;;;13.30;3.17;;;;;7.00;95222.00;;;;7395115;19;20149;-82
2024/01/23 10:59:39;;;;;;;14.03;3.40;;;;;5.40;95234.00;;;;7395324;19;20546;-84
2024/01/23 11:02:45;;;;;;;12.90;2.80;;;;;6.30;95226.00;;;;7394561;19;20617;-83
2024/01/23 11:05:14;;;;;;;10.20;2.33;;;;;6.50;95215.00;;;;7396164;19;20212;-82
2024/01/23 11:08:09;;;;;;;12.87;2.90;;;;;7.10;95196.00;;;;7396115;19;20622;-80
2024/01/23 11:10:56;;;;;;;9.93;2.83;;;;;6.30;95221.00;;;;7395827;19;20596;-83
2024/01/23 11:13:35;;;;;;;14.80;2.67;;;;;5.70;95234.00;;;;7394532;19;20166;-82
2024/01/23 11:16:11;;;;;;;12.90;2.60;;;;;6.00;95217.00;;;;7395962;19;20177;-81
2024/01/23 11:18:41;;;;;;;10.17;2.70;;;;;7.60;95212.00;;;;7398953;19;20133;-82
2024/01/23 11:21:21;;;;;;;13.20;2.77;;;;;7.60;95220.00;;;;7393165;19;20160;-79
2024/01/23 11:24:01;;;;;;;9.93;2.30;;;;;7.50;95201.00;;;;7394628;19;20179;-80
2024/01/23 11:26:31;;;;;;;16.17;3.07;;;;;8.30;95208.00;;;;7396177;19;20497;-81
2024/01/23 11:29:07;;;;;;;11.37;2.67;;;;;7.50;95215.00;;;;7396705;19;20501;-80
2024/01/23 11:31:49;;;;;;;11.53;2.37;;;;;8.30;95216.00;;;;7392984;19;20182;-80
2024/01/23 11:34:23;;;;;;;10.40;2.77;;;;;8.00;95231.00;;;;7393877;19;20495;-79
2024/01/23 11:36:58;;;;;;;14.07;2.70;;;;;6.60;95249.00;;;;7394131;19;20595;-81
2024/01/23 11:39:34;;;;;;;14.20;2.90;;;;;6.40;95230.00;;;;7390255;19;20743;-80
2024/01/23 11:42:13;;;;;;;13.67;2.50;;;;;6.50;95244.00;;;;7394950;19;20172;-79
2024/01/23 11:45:08;;;;;;;14.67;2.87;;;;;7.60;95261.00;;;;7394144;19;20262;-80
2024/01/23 11:47:42;;;;;;;13.17;2.80;;;;;6.50;95265.00;;;;7395564;19;20608;-81
2024/01/23 11:50:24;;;;;;;14.23;3.00;;;;;6.20;95262.00;;;;7393736;19;20148;-81
2024/01/23 11:53:00;;;;;;;13.03;3.00;;;;;6.10;95264.00;;;;7395680;19;20158;-80
2024/01/23 11:55:39;;;;;;;12.73;2.87;;;;;5.60;95261.00;;;;7395991;19;20161;-81
2024/01/23 11:58:15;;;;;;;8.43;2.10;;;;;5.70;95274.00;;;;7397061;19;20140;-81
2024/01/23 12:00:43;;;;;;;8.97;2.53;;;;;5.40;95260.00;;;;7396578;19;20132;-80
2024/01/23 12:03:21;;;;;;;13.77;2.67;;;;;6.20;95256.00;;;;7394921;19;20148;-78
2024/01/23 12:05:52;;;;;;;10.37;2.40;;;;;7.70;95234.00;;;;7394519;19;20155;-80
2024/01/23 12:08:27;;;;;;;9.43;2.30;;;;;9.00;95248.00;;;;7391455;19;20165;-79
2024/01/23 12:10:58;;;;;;;14.53;2.83;;;;;6.60;95265.00;;;;7392363;19;20149;-79
2024/01/23 12:13:40;;;;;;;8.27;2.63;;;;;6.10;95263.00;;;;7394651;19;20212;-80
2024/01/23 12:16:15;;;;;;;12.20;2.57;;;;;5.60;95265.00;;;;7392122;19;20621;-79
2024/01/23 12:18:56;;;;;;;11.20;2.23;;;;;5.60;95264.00;;;;7395770;19;20141;-81
2024/01/23 12:21:31;;;;;;;10.53;2.43;;;;;6.20;95260.00;;;;7395276;19;20136;-80
2024/01/23 12:24:05;;;;;;;10.37;2.23;;;;;6.60;95262.00;;;;7394373;19;20218;-80
2024/01/23 12:26:45;;;;;;;13.87;2.70;;;;;6.40;95252.00;;;;7394285;19;20503;-81
2024/01/23 12:29:13;;;;;;;12.47;2.60;;;;;8.00;95231.00;;;;7390562;19;20149;-80
2024/01/23 12:31:47;;;;;;;7.97;2.10;;;;;8.70;95244.00;;;;7388191;19;20224;-82
2024/01/23 12:34:21;;;;;;;11.33;2.83;;;;;8.20;95245.00;;;;7390726;19;20520;-81
2024/01/23 12:37:01;;;;;;;7.93;1.90;;;;;6.70;95238.00;;;;7391137;19;20144;-79
2024/01/23 12:39:29;;;;;;;12.10;2.30;;;;;5.80;95241.00;;;;7393390;19;20588;-79
2024/01/23 12:42:04;;;;;;;11.80;2.40;;;;;5.50;95255.00;;;;7393158;19;20155;-79
2024/01/23 12:44:32;;;;;;;9.93;2.63;;;;;5.30;95258.00;;;;7392726;19;20177;-78
2024/01/23 12:47:11;;;;;;;12.30;2.40;;;;;4.80;95260.00;;;;7392586;19;20156;-78
2024/01/23 12:49:47;;;;;;;12.07;2.50;;;;;5.10;95262.00;;;;7392794;19;20165;-81
2024/01/23 12:52:22;;;;;;;11.73;2.60;;;;;4.90;95263.00;;;;7397451;19;20140;-80
2024/01/23 12:54:49;;;;;;;7.60;2.13;;;;;4.90;95265.00;;;;7399196;19;20158;-80